RCR weather

Fulton County Airport
Rochester, Indiana, United States

Public forecast

Using degrees Fahrenheit for public forecast. Weather courtesy of forecast.io.

METAR (pilot weather report)

Retrieved 2019/05/21 16:35 UTC (0 seconds ago):

KRCR 211635Z AUTO 11012G16KT 10SM BKN090 12/06 A3014 RMK AO2

TAF (pilot weather forecast)

Closest forecast is Grissom Air Reserve Base, 25.1 nm (46.5 km) S. Retrieved 2019/05/21 11:06 UTC (5 hours ago):

TAF KGUS 211100Z 2111/2217 09012KT 9999 BKN040 BKN100 QNH3010INS BECMG 2111/2112 10012G18KT 9999 SCT050 BKN100 QNH3000INS TEMPO 2115/2123 12015G25KT BECMG 2122/2123 11012G18KT 9999 BKN050 OVC100 QNH2994INS TX15/2120Z TN07/2112Z